Time;durP1;ratioP1;P1;durP2;ratioP2;P2;SDS_P1;SDS_P2;PMS_P1;PMS_P2;Temp;Humidity;BMP_temperature;BMP_pressure;BME280_temperature;BME280_humidity;BME280_pressure;Samples;Min_cycle;Max_cycle;Signal;HPM_P1;HPM_P2
2023/10/30 00:00:08;;;;;;;10.48;4.05;;;384.10;2329.60;;;;;;5085316;28;20085;-75
2023/10/30 00:02:37;;;;;;;8.13;4.35;;;384.10;2329.60;;;;;;5085115;28;20017;-76
2023/10/30 00:05:04;;;;;;;10.82;4.57;;;359.30;2329.60;;;;;;5084627;28;20393;-75
2023/10/30 00:07:30;;;;;;;11.30;4.65;;;359.20;2329.60;;;;;;5088735;28;20077;-76
2023/10/30 00:09:56;;;;;;;11.93;3.95;;;359.20;2329.60;;;;;;5081711;28;20487;-76
2023/10/30 00:12:22;;;;;;;10.68;4.28;;;359.20;2329.60;;;;;;5085443;28;20063;-75
2023/10/30 00:14:47;;;;;;;11.00;4.28;;;359.20;2329.60;;;;;;5076664;28;20378;-76
2023/10/30 00:17:13;;;;;;;15.32;4.50;;;359.10;2329.60;;;;;;5076252;28;20024;-76
2023/10/30 00:19:39;;;;;;;9.48;4.53;;;359.10;2329.60;;;;;;5084104;28;21138;-76
2023/10/30 00:22:06;;;;;;;10.50;4.68;;;359.10;2329.60;;;;;;5074443;28;20430;-75
2023/10/30 00:24:32;;;;;;;8.20;4.95;;;359.20;2329.60;;;;;;5077773;28;20033;-75
2023/10/30 00:26:59;;;;;;;13.25;4.22;;;359.20;2329.60;;;;;;5089092;28;20082;-75
2023/10/30 00:29:24;;;;;;;9.85;5.07;;;359.10;2329.60;;;;;;5075976;28;20473;-76
2023/10/30 00:31:50;;;;;;;12.10;4.57;;;359.10;2329.60;;;;;;5083102;28;20078;-75
2023/10/30 00:34:16;;;;;;;10.13;4.70;;;359.00;2329.60;;;;;;5082473;28;20100;-76
2023/10/30 00:36:42;;;;;;;7.60;4.00;;;359.00;2329.60;;;;;;5076318;28;20066;-75
2023/10/30 00:39:07;;;;;;;13.48;4.78;;;359.00;2329.60;;;;;;5078592;28;20032;-75
2023/10/30 00:41:33;;;;;;;15.55;4.70;;;358.90;2329.60;;;;;;5091191;28;20025;-76
2023/10/30 00:43:59;;;;;;;8.95;4.43;;;358.90;2329.60;;;;;;5081951;28;20535;-75
2023/10/30 00:46:25;;;;;;;7.50;4.10;;;359.00;2329.60;;;;;;5081605;28;20063;-76
2023/10/30 00:48:50;;;;;;;12.48;4.93;;;359.00;2329.60;;;;;;5071735;28;20021;-76
2023/10/30 00:51:16;;;;;;;8.65;4.63;;;359.10;2329.60;;;;;;5072923;28;20069;-76
2023/10/30 00:53:42;;;;;;;12.20;4.45;;;359.00;2329.60;;;;;;5073372;28;20108;-76
2023/10/30 00:56:08;;;;;;;11.93;5.40;;;359.00;2329.60;;;;;;5077349;28;20070;-76
2023/10/30 00:58:34;;;;;;;12.77;5.47;;;359.00;2329.60;;;;;;5090759;28;20021;-76
2023/10/30 01:01:01;;;;;;;9.85;4.90;;;359.00;2329.60;;;;;;5088772;28;20039;-76
2023/10/30 01:03:27;;;;;;;9.25;5.35;;;359.00;2329.60;;;;;;5086549;28;20033;-76
2023/10/30 01:06:00;;;;;;;11.07;5.25;;;359.00;2329.60;;;;;;5097184;28;20157;-76
2023/10/30 01:08:28;;;;;;;11.43;4.80;;;359.00;2329.60;;;;;;5096919;28;20133;-76
2023/10/30 01:10:57;;;;;;;10.13;5.05;;;359.00;2329.60;;;;;;5095901;28;20103;-76
2023/10/30 01:13:24;;;;;;;9.02;4.00;;;358.90;2329.60;;;;;;5081552;28;20059;-76
2023/10/30 01:15:54;;;;;;;10.40;4.07;;;358.80;2329.60;;;;;;5096917;28;20024;-76
2023/10/30 01:18:20;;;;;;;11.13;5.35;;;358.80;2329.60;;;;;;5096720;28;20027;-75
2023/10/30 01:20:46;;;;;;;13.43;5.15;;;358.80;2329.60;;;;;;5096542;28;20028;-76
2023/10/30 01:23:13;;;;;;;13.60;4.80;;;358.80;2329.60;;;;;;5077794;28;20394;-76
2023/10/30 01:25:39;;;;;;;8.55;5.22;;;358.70;2329.60;;;;;;5085428;28;20024;-75
2023/10/30 01:28:05;;;;;;;10.30;4.72;;;358.70;2329.60;;;;;;5095073;28;20035;-76
2023/10/30 01:30:30;;;;;;;16.13;5.53;;;358.70;2329.60;;;;;;5096559;28;20038;-76
2023/10/30 01:32:56;;;;;;;10.35;4.57;;;358.70;2329.60;;;;;;5094828;28;20032;-76
2023/10/30 01:35:22;;;;;;;10.70;5.03;;;358.60;2329.60;;;;;;5096748;28;20027;-76
2023/10/30 01:37:47;;;;;;;8.45;4.95;;;358.60;2329.60;;;;;;5094845;28;20028;-76
2023/10/30 01:40:14;;;;;;;11.73;5.93;;;358.50;2329.60;;;;;;5095926;28;20024;-76
2023/10/30 01:42:40;;;;;;;9.93;4.85;;;358.60;2329.60;;;;;;5095871;28;20027;-76
2023/10/30 01:45:07;;;;;;;10.88;5.70;;;358.50;2329.60;;;;;;5096424;28;20020;-75
2023/10/30 01:47:32;;;;;;;12.15;5.57;;;358.50;2329.60;;;;;;5096134;28;20078;-76
2023/10/30 01:50:00;;;;;;;19.35;6.75;;;358.50;2329.60;;;;;;5094874;28;20028;-76
2023/10/30 01:52:28;;;;;;;18.20;5.47;;;358.50;2329.60;;;;;;5095808;28;20123;-76
2023/10/30 01:54:54;;;;;;;15.80;5.60;;;358.50;2329.60;;;;;;5096185;28;20141;-76
2023/10/30 01:57:22;;;;;;;16.65;6.63;;;358.50;2329.60;;;;;;5095665;28;20469;-76
2023/10/30 01:59:52;;;;;;;14.30;5.38;;;358.50;2329.60;;;;;;5096071;28;20366;-76
2023/10/30 02:02:22;;;;;;;17.23;6.35;;;358.50;2329.60;;;;;;5096023;28;20020;-74
2023/10/30 02:04:49;;;;;;;14.45;5.97;;;358.60;2329.60;;;;;;5095100;28;20070;-76
2023/10/30 02:07:15;;;;;;;11.43;5.40;;;358.50;2329.60;;;;;;5095829;28;20032;-76
2023/10/30 02:09:41;;;;;;;9.07;4.68;;;358.50;2329.60;;;;;;5094637;28;20024;-76
2023/10/30 02:12:08;;;;;;;12.68;5.35;;;358.60;2329.60;;;;;;5095813;28;20024;-75
2023/10/30 02:14:34;;;;;;;12.25;5.45;;;358.60;2329.60;;;;;;5079495;28;20025;-75
2023/10/30 02:17:00;;;;;;;15.23;5.75;;;358.60;2329.60;;;;;;5083520;28;20028;-75
2023/10/30 02:19:27;;;;;;;12.80;5.10;;;358.70;2329.60;;;;;;5095281;28;20385;-75
2023/10/30 02:21:54;;;;;;;11.30;5.05;;;358.60;2329.60;;;;;;5094230;28;20074;-76
2023/10/30 02:24:20;;;;;;;8.95;5.13;;;358.60;2329.60;;;;;;5092560;28;20059;-75
2023/10/30 02:26:50;;;;;;;18.77;6.72;;;358.50;2329.60;;;;;;5095579;28;20055;-76
2023/10/30 02:29:17;;;;;;;10.50;5.00;;;358.70;2329.60;;;;;;5092972;28;20032;-76
2023/10/30 02:31:43;;;;;;;11.05;5.28;;;358.70;2329.60;;;;;;5090474;28;20029;-76
2023/10/30 02:34:09;;;;;;;13.88;4.88;;;358.60;2329.60;;;;;;5090032;28;20020;-75
2023/10/30 02:36:35;;;;;;;10.75;4.72;;;358.50;2329.60;;;;;;5095421;28;20032;-76
2023/10/30 02:39:04;;;;;;;13.73;5.00;;;358.50;2329.60;;;;;;5093486;28;20024;-75
2023/10/30 02:41:31;;;;;;;10.68;5.90;;;358.40;2329.60;;;;;;5095212;28;20374;-76
2023/10/30 02:44:00;;;;;;;13.55;6.18;;;333.70;2329.60;;;;;;5094794;28;20020;-76
2023/10/30 02:46:26;;;;;;;11.98;5.82;;;333.70;2329.60;;;;;;5094003;28;20032;-75
2023/10/30 02:48:53;;;;;;;13.10;5.10;;;333.70;2329.60;;;;;;5094959;28;20020;-76
2023/10/30 02:51:18;;;;;;;16.65;6.47;;;333.70;2329.60;;;;;;5094866;28;20493;-76
2023/10/30 02:53:44;;;;;;;13.77;5.85;;;333.70;2329.60;;;;;;5094839;28;20079;-76
2023/10/30 02:56:10;;;;;;;12.43;5.80;;;333.60;2329.60;;;;;;5090385;28;20025;-76
2023/10/30 02:58:36;;;;;;;9.95;5.60;;;333.70;2329.60;;;;;;5090931;28;20465;-76
2023/10/30 03:01:02;;;;;;;11.40;5.45;;;333.60;2329.60;;;;;;5094968;28;20053;-76
2023/10/30 03:03:29;;;;;;;10.98;5.38;;;333.70;2329.60;;;;;;5094650;28;20024;-76
2023/10/30 03:05:55;;;;;;;15.23;5.72;;;333.60;2329.60;;;;;;5094784;28;20024;-76
2023/10/30 03:08:20;;;;;;;12.32;5.35;;;333.50;2329.60;;;;;;5092861;28;20044;-76
2023/10/30 03:10:49;;;;;;;13.63;5.93;;;333.40;2329.60;;;;;;5094796;28;20053;-76
2023/10/30 03:13:15;;;;;;;12.85;5.63;;;333.40;2329.60;;;;;;5080724;28;20032;-76
2023/10/30 03:15:46;;;;;;;11.77;5.43;;;333.30;2329.60;;;;;;5094454;28;20427;-76
2023/10/30 03:18:13;;;;;;;10.43;5.32;;;333.40;2329.60;;;;;;5093951;28;20069;-76
2023/10/30 03:20:38;;;;;;;13.95;6.03;;;333.30;2329.60;;;;;;5094731;28;20024;-75
2023/10/30 03:23:05;;;;;;;11.60;5.00;;;333.30;2329.60;;;;;;5092982;28;20035;-75
2023/10/30 03:25:30;;;;;;;8.88;4.70;;;333.30;2329.60;;;;;;5082699;28;20016;-76
2023/10/30 03:27:56;;;;;;;11.70;5.60;;;333.20;2329.60;;;;;;5091262;28;20492;-76
2023/10/30 03:30:22;;;;;;;14.13;5.60;;;333.30;2329.60;;;;;;5092323;28;20120;-76
2023/10/30 03:32:48;;;;;;;8.95;4.38;;;333.30;2329.60;;;;;;5075455;28;20021;-76
2023/10/30 03:35:13;;;;;;;11.02;4.88;;;333.20;2329.60;;;;;;5083339;28;20528;-75
2023/10/30 03:37:39;;;;;;;17.92;4.93;;;333.20;2329.60;;;;;;5093956;28;20025;-76
2023/10/30 03:40:05;;;;;;;11.55;5.85;;;333.20;2329.60;;;;;;5093077;28;20034;-76
2023/10/30 03:42:31;;;;;;;12.85;5.30;;;333.20;2329.60;;;;;;5093706;28;20474;-76
2023/10/30 03:44:57;;;;;;;14.13;5.55;;;333.20;2329.60;;;;;;5093860;28;20017;-76
2023/10/30 03:47:22;;;;;;;10.45;5.18;;;333.10;2329.60;;;;;;5093968;28;20028;-76
2023/10/30 03:49:48;;;;;;;15.02;5.70;;;333.20;2329.60;;;;;;5081795;28;20034;-75
2023/10/30 03:52:14;;;;;;;9.52;4.90;;;333.10;2329.60;;;;;;5091118;28;20499;-76
2023/10/30 03:54:39;;;;;;;12.95;6.97;;;333.10;2329.60;;;;;;5094009;28;20028;-76
2023/10/30 03:57:10;;;;;;;10.00;5.30;;;333.10;2329.60;;;;;;5074544;28;20025;-76
2023/10/30 03:59:35;;;;;;;13.75;5.65;;;333.20;2329.60;;;;;;5080596;28;20048;-76
2023/10/30 04:02:01;;;;;;;10.18;6.25;;;333.20;2329.60;;;;;;5087021;28;20410;-76
2023/10/30 04:04:27;;;;;;;12.10;5.63;;;333.30;2329.60;;;;;;5085467;28;20028;-76
2023/10/30 04:06:53;;;;;;;12.45;6.00;;;333.30;2329.60;;;;;;5093589;28;20039;-76
2023/10/30 04:09:19;;;;;;;12.93;5.95;;;333.40;2329.60;;;;;;5093665;28;20462;-75
2023/10/30 04:11:47;;;;;;;14.52;6.22;;;333.40;2329.60;;;;;;5093471;28;20433;-76
2023/10/30 04:14:13;;;;;;;10.35;5.05;;;333.40;2329.60;;;;;;5093669;28;20043;-75
2023/10/30 04:16:39;;;;;;;17.88;6.40;;;333.30;2329.60;;;;;;5093249;28;20473;-76
2023/10/30 04:19:05;;;;;;;13.15;6.45;;;333.40;2329.60;;;;;;5081314;28;20024;-76
2023/10/30 04:21:31;;;;;;;23.52;7.18;;;333.30;2329.60;;;;;;5090957;28;20031;-76
2023/10/30 04:23:57;;;;;;;15.82;6.43;;;333.30;2329.60;;;;;;5093277;28;20038;-76
2023/10/30 04:26:23;;;;;;;12.30;5.72;;;333.30;2329.60;;;;;;5093472;28;20523;-76
2023/10/30 04:28:49;;;;;;;15.70;6.05;;;333.30;2329.60;;;;;;5088218;28;20024;-76
2023/10/30 04:31:15;;;;;;;15.77;5.65;;;333.20;2329.60;;;;;;5090974;28;20107;-76
2023/10/30 04:33:41;;;;;;;13.70;5.88;;;333.20;2329.60;;;;;;5093098;28;20153;-76
2023/10/30 04:36:07;;;;;;;12.45;5.53;;;333.20;2329.60;;;;;;5091764;28;20024;-76
2023/10/30 04:38:33;;;;;;;16.80;5.93;;;333.20;2329.60;;;;;;5093348;28;20542;-76
2023/10/30 04:41:05;;;;;;;13.23;5.60;;;333.20;2329.60;;;;;;5092010;28;20107;-76
2023/10/30 04:43:34;;;;;;;14.98;6.47;;;333.20;2329.60;;;;;;5078711;28;20021;-76
2023/10/30 04:46:00;;;;;;;13.02;6.07;;;333.20;2329.60;;;;;;5076680;28;20473;-75
2023/10/30 04:48:26;;;;;;;15.82;6.40;;;333.20;2329.60;;;;;;5078368;28;20030;-75
2023/10/30 04:50:52;;;;;;;18.40;6.22;;;333.20;2329.60;;;;;;5080981;28;20027;-75
2023/10/30 04:53:17;;;;;;;19.17;6.45;;;333.20;2329.60;;;;;;5081901;28;20119;-76
2023/10/30 04:55:43;;;;;;;12.43;6.20;;;333.20;2329.60;;;;;;5074274;28;20487;-76
2023/10/30 04:58:09;;;;;;;14.73;6.35;;;333.10;2329.60;;;;;;5082889;28;20020;-75
2023/10/30 05:00:35;;;;;;;16.98;5.63;;;333.10;2329.60;;;;;;5081713;28;20099;-76
2023/10/30 05:03:01;;;;;;;10.27;5.43;;;333.10;2329.60;;;;;;5083891;28;20359;-76
2023/10/30 05:05:28;;;;;;;13.35;5.93;;;333.10;2329.60;;;;;;5086802;28;20027;-75
2023/10/30 05:07:53;;;;;;;13.60;5.43;;;333.10;2329.60;;;;;;5082226;28;20034;-75
2023/10/30 05:10:19;;;;;;;15.00;5.95;;;333.10;2329.60;;;;;;5073540;28;20111;-75
2023/10/30 05:12:45;;;;;;;9.88;4.80;;;333.20;2329.60;;;;;;5079524;28;20028;-75
2023/10/30 05:15:10;;;;;;;9.38;5.18;;;333.20;2329.60;;;;;;5080104;28;20027;-76
2023/10/30 05:17:40;;;;;;;13.00;5.85;;;333.20;2329.60;;;;;;5083665;28;20543;-75
2023/10/30 05:20:06;;;;;;;17.90;5.32;;;333.20;2329.60;;;;;;5077868;28;20029;-75
2023/10/30 05:22:32;;;;;;;14.70;5.22;;;333.20;2329.60;;;;;;5074220;28;20033;-75
2023/10/30 05:24:58;;;;;;;9.15;4.55;;;333.30;2329.60;;;;;;5078071;28;20036;-75
2023/10/30 05:27:27;;;;;;;10.65;5.63;;;333.30;2329.60;;;;;;5082952;28;20032;-75
2023/10/30 05:29:53;;;;;;;17.83;6.75;;;333.30;2329.60;;;;;;5077237;28;20440;-75
2023/10/30 05:32:18;;;;;;;13.13;6.10;;;333.40;2329.60;;;;;;5084708;28;20059;-76
2023/10/30 05:34:46;;;;;;;10.23;4.30;;;333.40;2329.60;;;;;;5079728;28;20043;-76
2023/10/30 05:37:12;;;;;;;10.10;4.60;;;333.40;2329.60;;;;;;5079860;28;20028;-77
2023/10/30 05:39:38;;;;;;;9.60;4.80;;;333.50;2329.60;;;;;;5077333;28;20028;-77
2023/10/30 05:42:04;;;;;;;13.77;4.35;;;333.50;2329.60;;;;;;5077147;28;20099;-77
2023/10/30 05:44:30;;;;;;;11.52;5.22;;;333.70;2329.60;;;;;;5087698;28;20044;-76
2023/10/30 05:46:57;;;;;;;17.08;5.43;;;358.50;2329.60;;;;;;5086216;28;20036;-75
2023/10/30 05:49:22;;;;;;;16.35;5.95;;;358.60;2329.60;;;;;;5076395;28;20431;-75
2023/10/30 05:51:48;;;;;;;13.02;6.03;;;358.70;2329.60;;;;;;5086967;28;20052;-76
2023/10/30 05:54:14;;;;;;;19.58;5.05;;;358.80;2329.60;;;;;;5082969;28;20075;-75
2023/10/30 05:56:40;;;;;;;13.57;5.75;;;358.60;2329.60;;;;;;5082197;28;20025;-75
2023/10/30 05:59:05;;;;;;;12.25;5.20;;;358.60;2329.60;;;;;;5088700;28;20029;-75
2023/10/30 06:01:31;;;;;;;10.18;4.85;;;358.60;2329.60;;;;;;5085436;28;20016;-75
2023/10/30 06:03:57;;;;;;;12.40;4.95;;;358.60;2329.60;;;;;;5083046;28;20373;-75
2023/10/30 06:06:22;;;;;;;19.05;6.15;;;358.50;2329.60;;;;;;5082658;28;20035;-75
2023/10/30 06:08:48;;;;;;;11.80;5.55;;;358.60;2329.60;;;;;;5091339;28;20024;-75
2023/10/30 06:11:15;;;;;;;10.82;4.68;;;358.60;2329.60;;;;;;5084231;28;20012;-75
2023/10/30 06:13:41;;;;;;;11.52;4.80;;;358.70;2329.60;;;;;;5082203;28;20051;-75
2023/10/30 06:16:13;;;;;;;11.20;5.00;;;358.70;2329.60;;;;;;5086187;28;20510;-75
2023/10/30 06:18:38;;;;;;;10.80;5.05;;;358.80;2329.60;;;;;;5083117;28;20024;-77
2023/10/30 06:21:07;;;;;;;7.70;4.60;;;358.80;2329.60;;;;;;5082059;28;20432;-77
2023/10/30 06:23:34;;;;;;;11.55;5.40;;;358.80;2329.60;;;;;;5085677;28;20024;-79
2023/10/30 06:25:59;;;;;;;16.52;4.93;;;358.80;2329.60;;;;;;5081225;28;20016;-77
2023/10/30 06:28:25;;;;;;;9.75;4.45;;;358.80;2329.60;;;;;;5085242;28;20047;-78
2023/10/30 06:30:51;;;;;;;11.70;5.55;;;358.80;2329.60;;;;;;5081869;28;20078;-79
2023/10/30 06:33:18;;;;;;;14.57;4.80;;;358.80;2329.60;;;;;;5080955;28;20051;-76
2023/10/30 06:35:44;;;;;;;13.93;5.30;;;358.80;2329.60;;;;;;5085932;28;20363;-75
2023/10/30 06:38:09;;;;;;;10.00;4.38;;;358.80;2329.60;;;;;;5085325;28;20023;-77
2023/10/30 06:40:35;;;;;;;12.27;4.65;;;358.80;2329.60;;;;;;5078475;28;20036;-76
2023/10/30 06:43:01;;;;;;;12.57;4.60;;;359.00;2329.60;;;;;;5078879;28;20021;-77
2023/10/30 06:45:27;;;;;;;10.55;4.45;;;358.80;2329.60;;;;;;5086963;28;20452;-76
2023/10/30 06:47:53;;;;;;;11.45;4.22;;;358.80;2329.60;;;;;;5075936;28;20032;-76
2023/10/30 06:50:19;;;;;;;15.57;5.20;;;358.90;2329.60;;;;;;5080259;28;20044;-77
2023/10/30 06:52:44;;;;;;;11.88;4.82;;;358.90;2329.60;;;;;;5079359;28;20143;-76
2023/10/30 06:55:10;;;;;;;10.23;4.78;;;358.90;2329.60;;;;;;5087983;28;20062;-76
2023/10/30 06:57:36;;;;;;;13.55;5.50;;;358.90;2329.60;;;;;;5084646;28;20107;-76
2023/10/30 07:00:02;;;;;;;14.43;4.90;;;358.90;2329.60;;;;;;5079812;28;20024;-77
2023/10/30 07:02:27;;;;;;;11.48;5.40;;;359.00;2329.60;;;;;;5077530;28;20021;-76
2023/10/30 07:04:53;;;;;;;10.60;4.35;;;359.00;2329.60;;;;;;5085772;28;20053;-77
2023/10/30 07:07:19;;;;;;;7.88;4.53;;;359.00;2329.60;;;;;;5085087;28;20040;-77
2023/10/30 07:09:45;;;;;;;16.05;5.03;;;359.00;2329.60;;;;;;5091625;28;20566;-76
2023/10/30 07:12:11;;;;;;;16.00;6.00;;;359.00;2329.60;;;;;;5087544;28;20025;-77
2023/10/30 07:14:39;;;;;;;13.30;4.35;;;359.00;2329.60;;;;;;5075715;28;20021;-76
2023/10/30 07:17:04;;;;;;;14.93;5.60;;;359.00;2329.60;;;;;;5076797;28;20032;-75
2023/10/30 07:19:30;;;;;;;15.45;5.28;;;359.00;2329.60;;;;;;5087026;28;20106;-76
2023/10/30 07:21:56;;;;;;;15.45;5.22;;;359.00;2329.60;;;;;;5082325;28;20081;-75
2023/10/30 07:24:22;;;;;;;13.43;5.47;;;359.10;2329.60;;;;;;5084294;28;20032;-76
2023/10/30 07:26:47;;;;;;;10.68;5.30;;;359.20;2329.60;;;;;;5084945;28;20024;-75
2023/10/30 07:29:13;;;;;;;9.23;5.13;;;359.20;2329.60;;;;;;5082652;28;20024;-76
2023/10/30 07:31:39;;;;;;;11.43;4.60;;;384.00;2329.60;;;;;;5082676;28;20068;-76
2023/10/30 07:34:05;;;;;;;12.75;4.60;;;384.20;2329.60;;;;;;5084300;28;20016;-76
2023/10/30 07:36:30;;;;;;;10.32;4.25;;;384.40;2329.60;;;;;;5087312;28;20039;-76
2023/10/30 07:38:56;;;;;;;14.50;5.40;;;384.70;2329.60;;;;;;5080398;28;20473;-76
2023/10/30 07:41:22;;;;;;;9.27;3.88;;;384.90;2329.60;;;;;;5075364;28;20119;-74
2023/10/30 07:43:48;;;;;;;13.95;5.22;;;409.80;2355.20;;;;;;5086812;28;20024;-76
2023/10/30 07:46:14;;;;;;;7.78;4.35;;;410.00;2355.20;;;;;;5084480;28;20024;-76
2023/10/30 07:48:40;;;;;;;7.10;4.43;;;410.20;2355.20;;;;;;5082343;28;20012;-76
2023/10/30 07:51:06;;;;;;;10.07;4.15;;;410.40;2355.20;;;;;;5078611;28;20394;-76
2023/10/30 07:53:31;;;;;;;11.88;5.65;;;410.50;2355.20;;;;;;5079906;28;20078;-76
2023/10/30 07:55:57;;;;;;;11.48;5.07;;;410.50;2355.20;;;;;;5087828;28;20032;-75
2023/10/30 07:58:23;;;;;;;8.85;4.60;;;435.20;2355.20;;;;;;5077412;28;20086;-76
2023/10/30 08:00:52;;;;;;;11.05;4.43;;;435.30;2355.20;;;;;;5076930;28;20109;-74
2023/10/30 08:03:18;;;;;;;12.30;4.72;;;435.30;2355.20;;;;;;5091351;28;20016;-76
2023/10/30 08:05:44;;;;;;;14.73;4.75;;;435.50;2355.20;;;;;;5082408;28;20024;-76
2023/10/30 08:08:09;;;;;;;9.65;4.72;;;435.50;2355.20;;;;;;5082077;28;20043;-75
2023/10/30 08:10:35;;;;;;;10.70;4.75;;;435.50;2355.20;;;;;;5090438;28;20081;-75
2023/10/30 08:13:01;;;;;;;16.08;5.95;;;435.60;2355.20;;;;;;5082994;28;20489;-75
2023/10/30 08:15:27;;;;;;;11.52;5.00;;;435.60;2355.20;;;;;;5085699;28;20485;-76
2023/10/30 08:17:53;;;;;;;12.63;3.97;;;435.80;2355.20;;;;;;5083203;28;20020;-76
2023/10/30 08:20:19;;;;;;;9.68;4.63;;;435.90;2355.20;;;;;;5086499;28;20047;-77
2023/10/30 08:22:44;;;;;;;12.45;4.50;;;436.10;2355.20;;;;;;5080798;28;20425;-77
2023/10/30 08:25:10;;;;;;;11.38;3.88;;;460.80;2380.80;;;;;;5074503;28;20035;-78
2023/10/30 08:27:36;;;;;;;8.85;3.83;;;461.10;2380.80;;;;;;5076481;28;20123;-79
2023/10/30 08:30:02;;;;;;;6.88;4.53;;;461.20;2380.80;;;;;;5084057;28;20020;-78
2023/10/30 08:32:28;;;;;;;17.95;4.60;;;461.30;2380.80;;;;;;5080261;28;20091;-78
2023/10/30 08:34:56;;;;;;;8.63;3.45;;;461.30;2380.80;;;;;;5085720;28;20108;-78
2023/10/30 08:37:21;;;;;;;13.30;3.95;;;461.40;2380.80;;;;;;5077597;28;20036;-76
2023/10/30 08:39:47;;;;;;;15.27;5.50;;;461.50;2380.80;;;;;;5082310;28;20024;-77
2023/10/30 08:42:13;;;;;;;7.53;3.38;;;461.50;2380.80;;;;;;5085776;28;20393;-75
2023/10/30 08:44:39;;;;;;;10.85;3.50;;;461.50;2380.80;;;;;;5088750;28;20047;-74
2023/10/30 08:47:04;;;;;;;8.75;3.50;;;461.50;2380.80;;;;;;5085817;28;20545;-76
2023/10/30 08:49:32;;;;;;;11.63;4.57;;;461.60;2380.80;;;;;;5085991;28;20119;-76
2023/10/30 08:51:57;;;;;;;6.93;3.85;;;461.70;2380.80;;;;;;5087123;28;20040;-75
2023/10/30 08:54:23;;;;;;;12.82;4.57;;;486.40;2380.80;;;;;;5076472;28;20082;-75
2023/10/30 08:56:49;;;;;;;11.55;4.47;;;486.40;2380.80;;;;;;5083700;28;20032;-76
2023/10/30 08:59:15;;;;;;;7.47;3.60;;;486.40;2380.80;;;;;;5086217;28;20469;-77
2023/10/30 09:01:41;;;;;;;9.63;4.55;;;486.40;2380.80;;;;;;5081251;28;20040;-76
2023/10/30 09:04:06;;;;;;;13.10;4.75;;;486.50;2380.80;;;;;;5084768;28;20066;-76
2023/10/30 09:06:32;;;;;;;15.15;7.18;;;486.50;2380.80;;;;;;5076401;28;20072;-77
2023/10/30 09:08:58;;;;;;;11.18;5.03;;;486.50;2380.80;;;;;;5079626;28;20021;-77
2023/10/30 09:11:23;;;;;;;11.25;5.15;;;486.50;2380.80;;;;;;5091700;28;20408;-75
2023/10/30 09:13:49;;;;;;;11.85;4.72;;;486.70;2380.80;;;;;;5078229;28;20040;-77
2023/10/30 09:16:15;;;;;;;11.45;5.72;;;486.80;2380.80;;;;;;5087584;28;20485;-81
2023/10/30 09:18:41;;;;;;;16.42;6.07;;;486.80;2380.80;;;;;;5085474;28;20025;-76
2023/10/30 09:21:08;;;;;;;14.13;5.07;;;487.00;2380.80;;;;;;5083702;28;20020;-77
2023/10/30 09:23:33;;;;;;;10.98;4.72;;;487.10;2380.80;;;;;;5081959;28;20032;-75
2023/10/30 09:25:59;;;;;;;10.20;4.90;;;512.00;2380.80;;;;;;5077932;28;20025;-76
2023/10/30 09:28:25;;;;;;;10.57;5.28;;;512.30;2380.80;;;;;;5087519;28;20533;-77
2023/10/30 09:30:50;;;;;;;15.40;5.50;;;512.80;2380.80;;;;;;5084702;28;20025;-78
2023/10/30 09:33:16;;;;;;;12.10;4.72;;;537.90;2406.40;;;;;;5084228;28;20028;-76
2023/10/30 09:35:42;;;;;;;10.10;4.55;;;538.40;2406.40;;;;;;5090429;28;20026;-77
2023/10/30 09:38:08;;;;;;;10.32;4.15;;;538.50;2406.40;;;;;;5088088;28;20101;-76
2023/10/30 09:40:34;;;;;;;11.45;3.85;;;563.30;2432.00;;;;;;5079115;28;20025;-77
2023/10/30 09:43:01;;;;;;;11.30;4.57;;;563.50;2432.00;;;;;;5086215;28;20024;-77
2023/10/30 09:45:27;;;;;;;13.60;4.18;;;563.50;2432.00;;;;;;5080753;28;20019;-75
2023/10/30 09:47:57;;;;;;;11.40;5.18;;;564.00;2406.40;;;;;;5087875;28;20028;-76
2023/10/30 09:50:25;;;;;;;11.25;4.03;;;588.90;2432.00;;;;;;5080529;28;20020;-76
2023/10/30 09:52:54;;;;;;;16.65;4.88;;;588.90;2329.60;;;;;;5084149;28;20076;-77
2023/10/30 09:55:23;;;;;;;8.35;4.85;;;564.00;2304.00;;;;;;5082438;28;20033;-77
2023/10/30 09:57:53;;;;;;;9.98;4.78;;;564.10;2380.80;;;;;;5081042;28;20118;-77
2023/10/30 10:00:19;;;;;;;11.88;4.78;;;564.00;2304.00;;;;;;5085843;28;20020;-77
2023/10/30 10:02:46;;;;;;;9.45;4.15;;;563.70;2329.60;;;;;;5084700;28;20035;-76
2023/10/30 10:05:13;;;;;;;9.73;4.57;;;563.70;2329.60;;;;;;5090126;28;20039;-76
2023/10/30 10:07:39;;;;;;;10.02;3.95;;;563.70;2329.60;;;;;;5082614;28;20036;-76
2023/10/30 10:10:07;;;;;;;14.90;5.22;;;563.70;2380.80;;;;;;5084793;28;20114;-76
2023/10/30 10:12:33;;;;;;;9.20;4.68;;;563.70;2380.80;;;;;;5085781;28;20024;-77
2023/10/30 10:15:02;;;;;;;10.43;4.85;;;563.40;2329.60;;;;;;5085407;28;20413;-79
2023/10/30 10:17:28;;;;;;;12.88;5.07;;;563.90;2380.80;;;;;;5085470;28;20508;-76
2023/10/30 10:19:54;;;;;;;10.95;4.60;;;564.00;2380.80;;;;;;5078311;28;20021;-77
2023/10/30 10:22:32;;;;;;;10.18;4.82;;;563.80;2355.20;;;;;;5081602;28;20027;-75
2023/10/30 10:24:59;;;;;;;20.27;5.22;;;564.00;2329.60;;;;;;5082972;28;20037;-75
2023/10/30 10:27:26;;;;;;;11.13;4.63;;;564.10;2304.00;;;;;;5077534;28;20039;-75
2023/10/30 10:29:55;;;;;;;8.18;4.30;;;564.10;2304.00;;;;;;5085303;28;20023;-75
2023/10/30 10:32:26;;;;;;;10.95;5.03;;;588.80;2329.60;;;;;;5085528;28;20020;-76
2023/10/30 10:34:57;;;;;;;14.73;4.57;;;589.10;2252.80;;;;;;5083588;28;20386;-76
2023/10/30 10:37:23;;;;;;;14.82;6.00;;;589.10;2201.60;;;;;;5081931;28;20524;-76
2023/10/30 10:39:50;;;;;;;9.35;4.10;;;589.40;2252.80;;;;;;5082801;28;20051;-76
2023/10/30 10:42:21;;;;;;;13.65;5.75;;;589.50;2201.60;;;;;;5084411;28;20503;-76
2023/10/30 10:44:49;;;;;;;13.43;5.70;;;589.50;2150.40;;;;;;5085638;28;20020;-76
2023/10/30 10:47:16;;;;;;;8.45;4.45;;;589.60;2150.40;;;;;;5091664;28;20461;-76
2023/10/30 10:49:42;;;;;;;14.65;5.78;;;614.50;2124.80;;;;;;5084236;28;20074;-76
2023/10/30 10:52:13;;;;;;;13.35;5.65;;;614.50;2124.80;;;;;;5086444;28;20048;-75
2023/10/30 10:54:54;;;;;;;10.55;5.65;;;;;;;;;;5086271;28;20032;-75
2023/10/30 10:57:21;;;;;;;16.00;4.50;;;615.10;2022.40;;;;;;5082546;28;20123;-77
2023/10/30 10:59:54;;;;;;;12.98;5.60;;;615.20;1996.80;;;;;;5084557;28;20059;-76
2023/10/30 11:02:27;;;;;;;10.38;5.50;;;615.30;1945.60;;;;;;5081460;28;20104;-75
2023/10/30 11:04:54;;;;;;;10.15;5.18;;;615.30;1920.00;;;;;;5083982;28;20027;-75
2023/10/30 11:07:43;;;;;;;15.38;5.78;;;615.30;1920.00;;;;;;5078080;28;20024;-74
2023/10/30 11:10:23;;;;;;;10.20;5.63;;;615.30;1920.00;;;;;;5081383;28;20020;-76
2023/10/30 11:13:30;;;;;;;10.75;5.45;;;640.10;1894.40;;;;;;5075507;28;20393;-74
2023/10/30 11:16:19;;;;;;;8.27;4.57;;;640.40;1843.20;;;;;;5080392;28;20028;-75
2023/10/30 11:18:45;;;;;;;11.52;4.82;;;640.10;1843.20;;;;;;5087427;28;20025;-75
2023/10/30 11:21:13;;;;;;;11.43;5.07;;;640.20;1843.20;;;;;;5081812;28;20026;-75
2023/10/30 11:23:46;;;;;;;11.45;5.47;;;;;;;;;;5084078;28;20115;-74
2023/10/30 11:26:38;;;;;;;13.02;5.07;;;640.50;1817.60;;;;;;5088062;28;20111;-75
2023/10/30 11:29:44;;;;;;;8.95;5.28;;;640.30;1817.60;;;;;;5082455;28;20091;-76
2023/10/30 11:32:14;;;;;;;8.00;4.60;;;640.00;1843.20;;;;;;5078647;28;20022;-75
2023/10/30 11:34:43;;;;;;;9.95;4.38;;;615.30;1843.20;;;;;;5080853;28;20020;-75
2023/10/30 11:37:11;;;;;;;10.88;4.72;;;640.20;1868.80;;;;;;5080550;28;20016;-75
2023/10/30 11:39:39;;;;;;;10.50;5.30;;;640.40;1817.60;;;;;;5083876;28;20028;-75
2023/10/30 11:42:25;;;;;;;8.88;4.90;;;640.40;1817.60;;;;;;5084088;28;20027;-75
2023/10/30 11:44:53;;;;;;;7.95;4.53;;;640.60;1817.60;;;;;;5073402;28;20067;-75
2023/10/30 11:47:23;;;;;;;7.78;3.42;;;640.50;1792.00;;;;;;5085047;28;20031;-76
2023/10/30 11:49:50;;;;;;;7.75;4.13;;;640.70;1792.00;;;;;;5091896;28;20047;-76
2023/10/30 11:52:15;;;;;;;12.95;4.85;;;640.60;1766.40;;;;;;5078653;28;20120;-76
2023/10/30 11:54:45;;;;;;;12.45;4.32;;;640.30;1740.80;;;;;;5079330;28;20099;-75
2023/10/30 11:57:11;;;;;;;7.32;4.32;;;640.00;1766.40;;;;;;5083888;28;20021;-75
2023/10/30 11:59:37;;;;;;;8.43;3.97;;;615.30;1766.40;;;;;;5080089;28;20462;-75
2023/10/30 12:02:05;;;;;;;10.43;4.55;;;615.30;1766.40;;;;;;5078606;28;20478;-75
2023/10/30 12:04:33;;;;;;;9.20;4.22;;;640.20;1792.00;;;;;;5079217;28;20138;-75
2023/10/30 12:07:00;;;;;;;10.15;3.92;;;640.40;1766.40;;;;;;5083506;28;20098;-74
2023/10/30 12:09:26;;;;;;;8.13;3.80;;;640.40;1715.20;;;;;;5080095;28;20107;-75